sensor_id;sensor_type;location;lat;lon;timestamp;temperature;humidity
16479;DHT22;8350;52.316;10.530;2023-03-14T00:01:10;10.70;90.40
16479;DHT22;8350;52.316;10.530;2023-03-14T00:03:37;10.70;90.40
16479;DHT22;8350;52.316;10.530;2023-03-14T00:06:05;10.70;98.00
16479;DHT22;8350;52.316;10.530;2023-03-14T00:08:33;10.70;97.90
16479;DHT22;8350;52.316;10.530;2023-03-14T00:11:04;10.60;99.90
16479;DHT22;8350;52.316;10.530;2023-03-14T00:13:31;10.70;99.90
16479;DHT22;8350;52.316;10.530;2023-03-14T00:16:03;10.70;99.90
16479;DHT22;8350;52.316;10.530;2023-03-14T00:18:30;10.60;99.90
16479;DHT22;8350;52.316;10.530;2023-03-14T00:21:01;10.60;99.90
16479;DHT22;8350;52.316;10.530;2023-03-14T00:23:29;10.50;99.90
16479;DHT22;8350;52.316;10.530;2023-03-14T00:25:58;10.50;99.90
16479;DHT22;8350;52.316;10.530;2023-03-14T00:28:26;10.50;99.90
16479;DHT22;8350;52.316;10.530;2023-03-14T00:31:01;10.50;99.90
16479;DHT22;8350;52.316;10.530;2023-03-14T00:33:29;10.60;99.90
16479;DHT22;8350;52.316;10.530;2023-03-14T00:35:57;10.70;99.90
16479;DHT22;8350;52.316;10.530;2023-03-14T00:38:25;10.70;99.90
16479;DHT22;8350;52.316;10.530;2023-03-14T00:40:52;10.70;99.90
16479;DHT22;8350;52.316;10.530;2023-03-14T00:43:20;10.80;99.90
16479;DHT22;8350;52.316;10.530;2023-03-14T00:45:48;10.80;99.90
16479;DHT22;8350;52.316;10.530;2023-03-14T00:48:14;10.80;99.90
16479;DHT22;8350;52.316;10.530;2023-03-14T00:50:43;10.90;99.90
16479;DHT22;8350;52.316;10.530;2023-03-14T00:53:10;10.90;99.90
16479;DHT22;8350;52.316;10.530;2023-03-14T00:55:37;11.00;96.10
16479;DHT22;8350;52.316;10.530;2023-03-14T00:58:04;11.10;88.10
16479;DHT22;8350;52.316;10.530;2023-03-14T01:00:32;11.10;77.30
16479;DHT22;8350;52.316;10.530;2023-03-14T01:02:59;11.10;72.30
16479;DHT22;8350;52.316;10.530;2023-03-14T01:05:26;11.20;66.70
16479;DHT22;8350;52.316;10.530;2023-03-14T01:07:54;11.20;58.20
16479;DHT22;8350;52.316;10.530;2023-03-14T01:10:21;11.20;55.70
16479;DHT22;8350;52.316;10.530;2023-03-14T01:12:49;11.20;49.00
16479;DHT22;8350;52.316;10.530;2023-03-14T01:15:16;11.20;43.60
16479;DHT22;8350;52.316;10.530;2023-03-14T01:17:43;11.20;42.60
16479;DHT22;8350;52.316;10.530;2023-03-14T01:20:12;11.20;43.30
16479;DHT22;8350;52.316;10.530;2023-03-14T01:22:40;11.10;44.50
16479;DHT22;8350;52.316;10.530;2023-03-14T01:25:11;11.10;44.00
16479;DHT22;8350;52.316;10.530;2023-03-14T01:27:38;11.10;42.30
16479;DHT22;8350;52.316;10.530;2023-03-14T01:30:09;11.10;44.30
16479;DHT22;8350;52.316;10.530;2023-03-14T01:32:39;11.00;46.20
16479;DHT22;8350;52.316;10.530;2023-03-14T01:35:06;11.00;47.60
16479;DHT22;8350;52.316;10.530;2023-03-14T01:37:33;11.00;43.30
16479;DHT22;8350;52.316;10.530;2023-03-14T01:40:00;11.10;30.60
16479;DHT22;8350;52.316;10.530;2023-03-14T01:42:30;11.10;25.50
16479;DHT22;8350;52.316;10.530;2023-03-14T01:44:58;11.20;17.10
16479;DHT22;8350;52.316;10.530;2023-03-14T01:47:25;11.20;12.80
16479;DHT22;8350;52.316;10.530;2023-03-14T01:49:55;11.20;10.10
16479;DHT22;8350;52.316;10.530;2023-03-14T01:52:26;11.20;4.70
16479;DHT22;8350;52.316;10.530;2023-03-14T01:54:57;11.20;1.10
16479;DHT22;8350;52.316;10.530;2023-03-14T01:57:28;11.20;1.00
16479;DHT22;8350;52.316;10.530;2023-03-14T02:00:01;11.20;1.00
16479;DHT22;8350;52.316;10.530;2023-03-14T02:02:34;11.20;1.00
16479;DHT22;8350;52.316;10.530;2023-03-14T02:05:02;11.20;1.00
16479;DHT22;8350;52.316;10.530;2023-03-14T02:07:35;11.20;1.00
16479;DHT22;8350;52.316;10.530;2023-03-14T02:10:04;11.20;1.00
16479;DHT22;8350;52.316;10.530;2023-03-14T02:12:32;11.10;1.00
16479;DHT22;8350;52.316;10.530;2023-03-14T02:15:01;11.10;1.00
16479;DHT22;8350;52.316;10.530;2023-03-14T02:17:28;11.10;1.00
16479;DHT22;8350;52.316;10.530;2023-03-14T02:20:07;11.10;1.00
16479;DHT22;8350;52.316;10.530;2023-03-14T02:22:38;11.10;1.00
16479;DHT22;8350;52.316;10.530;2023-03-14T02:25:10;11.10;1.00
16479;DHT22;8350;52.316;10.530;2023-03-14T02:27:40;11.10;1.00
16479;DHT22;8350;52.316;10.530;2023-03-14T02:30:13;11.10;1.00
16479;DHT22;8350;52.316;10.530;2023-03-14T02:32:43;11.10;1.00
16479;DHT22;8350;52.316;10.530;2023-03-14T02:35:15;11.00;1.00
16479;DHT22;8350;52.316;10.530;2023-03-14T02:37:47;11.00;1.00
16479;DHT22;8350;52.316;10.530;2023-03-14T02:40:15;10.90;1.00
16479;DHT22;8350;52.316;10.530;2023-03-14T02:42:43;11.00;1.00
16479;DHT22;8350;52.316;10.530;2023-03-14T02:45:38;11.00;1.00
16479;DHT22;8350;52.316;10.530;2023-03-14T02:48:08;11.00;1.00
16479;DHT22;8350;52.316;10.530;2023-03-14T02:50:37;11.00;1.00
16479;DHT22;8350;52.316;10.530;2023-03-14T02:53:13;10.90;1.00
16479;DHT22;8350;52.316;10.530;2023-03-14T02:55:45;10.90;1.00
16479;DHT22;8350;52.316;10.530;2023-03-14T02:58:21;10.90;1.00
16479;DHT22;8350;52.316;10.530;2023-03-14T03:00:48;10.90;1.00
16479;DHT22;8350;52.316;10.530;2023-03-14T03:03:15;10.90;1.00
16479;DHT22;8350;52.316;10.530;2023-03-14T03:05:42;10.80;1.00
16479;DHT22;8350;52.316;10.530;2023-03-14T03:08:09;10.80;1.00
16479;DHT22;8350;52.316;10.530;2023-03-14T03:10:50;10.80;1.00
16479;DHT22;8350;52.316;10.530;2023-03-14T03:13:18;10.70;1.00
16479;DHT22;8350;52.316;10.530;2023-03-14T03:15:50;10.80;1.00
16479;DHT22;8350;52.316;10.530;2023-03-14T03:18:16;10.80;1.00
16479;DHT22;8350;52.316;10.530;2023-03-14T03:20:43;10.80;1.00
16479;DHT22;8350;52.316;10.530;2023-03-14T03:23:11;10.70;1.00
16479;DHT22;8350;52.316;10.530;2023-03-14T03:25:37;10.60;1.00
16479;DHT22;8350;52.316;10.530;2023-03-14T03:28:05;10.60;1.00
16479;DHT22;8350;52.316;10.530;2023-03-14T03:30:37;10.50;1.00
16479;DHT22;8350;52.316;10.530;2023-03-14T03:33:04;10.60;1.00
16479;DHT22;8350;52.316;10.530;2023-03-14T03:35:31;10.50;1.00
16479;DHT22;8350;52.316;10.530;2023-03-14T03:37:58;10.50;1.00
16479;DHT22;8350;52.316;10.530;2023-03-14T03:40:25;10.50;1.00
16479;DHT22;8350;52.316;10.530;2023-03-14T03:42:52;10.50;1.00
16479;DHT22;8350;52.316;10.530;2023-03-14T03:45:18;10.50;1.00
16479;DHT22;8350;52.316;10.530;2023-03-14T03:47:47;10.40;1.00
16479;DHT22;8350;52.316;10.530;2023-03-14T03:50:14;10.40;1.00
16479;DHT22;8350;52.316;10.530;2023-03-14T03:52:44;10.40;1.00
16479;DHT22;8350;52.316;10.530;2023-03-14T03:55:11;10.40;1.00
16479;DHT22;8350;52.316;10.530;2023-03-14T03:57:38;10.40;1.00
16479;DHT22;8350;52.316;10.530;2023-03-14T04:00:06;10.40;1.00
16479;DHT22;8350;52.316;10.530;2023-03-14T04:02:38;10.30;1.00
16479;DHT22;8350;52.316;10.530;2023-03-14T04:05:07;10.30;1.00
16479;DHT22;8350;52.316;10.530;2023-03-14T04:07:34;10.30;1.00
16479;DHT22;8350;52.316;10.530;2023-03-14T04:10:01;10.30;1.00
16479;DHT22;8350;52.316;10.530;2023-03-14T04:12:28;10.20;1.00
16479;DHT22;8350;52.316;10.530;2023-03-14T04:14:54;10.30;1.00
16479;DHT22;8350;52.316;10.530;2023-03-14T04:17:21;10.30;1.00
16479;DHT22;8350;52.316;10.530;2023-03-14T04:19:48;10.20;1.00
16479;DHT22;8350;52.316;10.530;2023-03-14T04:22:18;10.30;1.00
16479;DHT22;8350;52.316;10.530;2023-03-14T04:24:44;10.30;1.00
16479;DHT22;8350;52.316;10.530;2023-03-14T04:27:16;10.30;1.00
16479;DHT22;8350;52.316;10.530;2023-03-14T04:29:43;10.30;1.00
16479;DHT22;8350;52.316;10.530;2023-03-14T04:32:10;10.20;1.00
16479;DHT22;8350;52.316;10.530;2023-03-14T04:34:37;10.20;1.00
16479;DHT22;8350;52.316;10.530;2023-03-14T04:37:04;10.30;1.00
16479;DHT22;8350;52.316;10.530;2023-03-14T04:39:32;10.30;1.00
16479;DHT22;8350;52.316;10.530;2023-03-14T04:42:00;10.30;1.00
16479;DHT22;8350;52.316;10.530;2023-03-14T04:44:27;10.30;1.00
16479;DHT22;8350;52.316;10.530;2023-03-14T04:46:54;10.30;1.00
16479;DHT22;8350;52.316;10.530;2023-03-14T04:52:24;10.40;1.00
16479;DHT22;8350;52.316;10.530;2023-03-14T04:54:53;10.40;1.00
16479;DHT22;8350;52.316;10.530;2023-03-14T04:57:19;10.40;1.00
16479;DHT22;8350;52.316;10.530;2023-03-14T04:59:46;10.30;1.00
16479;DHT22;8350;52.316;10.530;2023-03-14T05:02:13;10.30;1.00
16479;DHT22;8350;52.316;10.530;2023-03-14T05:04:40;10.30;1.00
16479;DHT22;8350;52.316;10.530;2023-03-14T05:07:07;10.20;1.00
16479;DHT22;8350;52.316;10.530;2023-03-14T05:09:33;10.20;1.00
16479;DHT22;8350;52.316;10.530;2023-03-14T05:12:02;10.10;1.00
16479;DHT22;8350;52.316;10.530;2023-03-14T05:14:28;10.10;1.00
16479;DHT22;8350;52.316;10.530;2023-03-14T05:16:55;10.00;1.00
16479;DHT22;8350;52.316;10.530;2023-03-14T05:19:22;10.00;1.00
16479;DHT22;8350;52.316;10.530;2023-03-14T05:21:49;9.90;2.90
16479;DHT22;8350;52.316;10.530;2023-03-14T05:24:16;9.80;12.70
16479;DHT22;8350;52.316;10.530;2023-03-14T05:26:43;9.80;12.40
16479;DHT22;8350;52.316;10.530;2023-03-14T05:29:11;9.70;12.40
16479;DHT22;8350;52.316;10.530;2023-03-14T05:31:38;9.70;4.40
16479;DHT22;8350;52.316;10.530;2023-03-14T05:34:04;9.70;1.00
16479;DHT22;8350;52.316;10.530;2023-03-14T05:36:33;9.70;1.00
16479;DHT22;8350;52.316;10.530;2023-03-14T05:39:00;9.70;1.00
16479;DHT22;8350;52.316;10.530;2023-03-14T05:41:27;9.70;1.00
16479;DHT22;8350;52.316;10.530;2023-03-14T05:43:54;9.70;1.00
16479;DHT22;8350;52.316;10.530;2023-03-14T05:46:22;9.70;1.00
16479;DHT22;8350;52.316;10.530;2023-03-14T05:48:51;9.70;1.00
16479;DHT22;8350;52.316;10.530;2023-03-14T05:51:18;9.70;1.00
16479;DHT22;8350;52.316;10.530;2023-03-14T05:53:44;9.60;1.00
16479;DHT22;8350;52.316;10.530;2023-03-14T05:56:11;9.70;1.00
16479;DHT22;8350;52.316;10.530;2023-03-14T05:58:38;9.60;1.00
16479;DHT22;8350;52.316;10.530;2023-03-14T06:01:05;9.60;1.00
16479;DHT22;8350;52.316;10.530;2023-03-14T06:03:34;9.60;1.00
16479;DHT22;8350;52.316;10.530;2023-03-14T06:06:02;9.60;1.00
16479;DHT22;8350;52.316;10.530;2023-03-14T06:08:29;9.50;1.00
16479;DHT22;8350;52.316;10.530;2023-03-14T06:10:57;9.50;1.00
16479;DHT22;8350;52.316;10.530;2023-03-14T06:13:24;9.50;1.00
16479;DHT22;8350;52.316;10.530;2023-03-14T06:15:51;9.50;1.00
16479;DHT22;8350;52.316;10.530;2023-03-14T06:18:17;9.60;1.00
16479;DHT22;8350;52.316;10.530;2023-03-14T06:20:46;9.60;1.00
16479;DHT22;8350;52.316;10.530;2023-03-14T06:23:12;9.70;1.00
16479;DHT22;8350;52.316;10.530;2023-03-14T06:25:39;9.80;1.00
16479;DHT22;8350;52.316;10.530;2023-03-14T06:28:06;10.50;1.00
16479;DHT22;8350;52.316;10.530;2023-03-14T06:30:34;11.50;1.00
16479;DHT22;8350;52.316;10.530;2023-03-14T06:33:01;12.30;1.00
16479;DHT22;8350;52.316;10.530;2023-03-14T06:35:30;12.80;1.00
16479;DHT22;8350;52.316;10.530;2023-03-14T06:37:58;12.40;1.00
16479;DHT22;8350;52.316;10.530;2023-03-14T06:40:25;12.40;1.00
16479;DHT22;8350;52.316;10.530;2023-03-14T06:42:52;12.80;1.00
16479;DHT22;8350;52.316;10.530;2023-03-14T06:45:19;13.40;1.00
16479;DHT22;8350;52.316;10.530;2023-03-14T06:47:46;13.50;1.00
16479;DHT22;8350;52.316;10.530;2023-03-14T06:50:13;14.10;99.90
16479;DHT22;8350;52.316;10.530;2023-03-14T06:52:40;14.00;99.90
16479;DHT22;8350;52.316;10.530;2023-03-14T06:55:13;14.10;99.90
16479;DHT22;8350;52.316;10.530;2023-03-14T06:57:39;14.20;99.90
16479;DHT22;8350;52.316;10.530;2023-03-14T07:00:08;14.00;99.90
16479;DHT22;8350;52.316;10.530;2023-03-14T07:02:35;13.40;1.00
16479;DHT22;8350;52.316;10.530;2023-03-14T07:05:03;13.00;1.00
16479;DHT22;8350;52.316;10.530;2023-03-14T07:07:30;12.70;1.00
16479;DHT22;8350;52.316;10.530;2023-03-14T07:09:57;12.20;1.00
16479;DHT22;8350;52.316;10.530;2023-03-14T07:12:25;12.00;1.00
16479;DHT22;8350;52.316;10.530;2023-03-14T07:14:52;11.60;1.00
16479;DHT22;8350;52.316;10.530;2023-03-14T07:17:19;11.50;1.00
16479;DHT22;8350;52.316;10.530;2023-03-14T07:19:46;11.40;1.00
16479;DHT22;8350;52.316;10.530;2023-03-14T07:22:13;11.40;1.00
16479;DHT22;8350;52.316;10.530;2023-03-14T07:24:40;11.50;1.00
16479;DHT22;8350;52.316;10.530;2023-03-14T07:27:08;11.60;1.00
16479;DHT22;8350;52.316;10.530;2023-03-14T07:29:36;11.70;1.00
16479;DHT22;8350;52.316;10.530;2023-03-14T07:32:03;11.80;1.00
16479;DHT22;8350;52.316;10.530;2023-03-14T07:34:30;11.80;1.00
16479;DHT22;8350;52.316;10.530;2023-03-14T07:36:57;11.70;1.00
16479;DHT22;8350;52.316;10.530;2023-03-14T07:39:25;11.60;1.00
16479;DHT22;8350;52.316;10.530;2023-03-14T07:41:51;11.70;1.00
16479;DHT22;8350;52.316;10.530;2023-03-14T07:44:18;11.80;1.00
16479;DHT22;8350;52.316;10.530;2023-03-14T07:46:47;11.80;1.00
16479;DHT22;8350;52.316;10.530;2023-03-14T07:49:14;11.80;1.00
16479;DHT22;8350;52.316;10.530;2023-03-14T07:51:40;11.80;1.00
16479;DHT22;8350;52.316;10.530;2023-03-14T07:54:09;11.80;1.00
16479;DHT22;8350;52.316;10.530;2023-03-14T07:56:36;11.70;1.00
16479;DHT22;8350;52.316;10.530;2023-03-14T07:59:03;11.80;1.00
16479;DHT22;8350;52.316;10.530;2023-03-14T08:01:30;12.00;1.00
16479;DHT22;8350;52.316;10.530;2023-03-14T08:03:59;12.20;1.00
16479;DHT22;8350;52.316;10.530;2023-03-14T08:06:26;12.30;1.00
16479;DHT22;8350;52.316;10.530;2023-03-14T08:08:55;12.40;1.00
16479;DHT22;8350;52.316;10.530;2023-03-14T08:11:22;12.60;1.00
16479;DHT22;8350;52.316;10.530;2023-03-14T08:13:49;12.60;1.00
16479;DHT22;8350;52.316;10.530;2023-03-14T08:16:17;12.50;1.00
16479;DHT22;8350;52.316;10.530;2023-03-14T08:18:44;12.60;1.00
16479;DHT22;8350;52.316;10.530;2023-03-14T08:21:13;12.70;1.00
16479;DHT22;8350;52.316;10.530;2023-03-14T08:23:40;12.70;1.00
16479;DHT22;8350;52.316;10.530;2023-03-14T08:26:07;12.70;1.00
16479;DHT22;8350;52.316;10.530;2023-03-14T08:28:34;12.70;1.00
16479;DHT22;8350;52.316;10.530;2023-03-14T08:31:01;12.60;1.00
16479;DHT22;8350;52.316;10.530;2023-03-14T08:33:31;12.60;1.00
16479;DHT22;8350;52.316;10.530;2023-03-14T08:36:01;12.60;1.00
16479;DHT22;8350;52.316;10.530;2023-03-14T08:38:32;12.60;1.00
16479;DHT22;8350;52.316;10.530;2023-03-14T08:41:00;12.70;1.00
16479;DHT22;8350;52.316;10.530;2023-03-14T08:43:28;12.70;1.00
16479;DHT22;8350;52.316;10.530;2023-03-14T08:45:58;12.60;1.00
16479;DHT22;8350;52.316;10.530;2023-03-14T08:48:26;12.50;1.00
16479;DHT22;8350;52.316;10.530;2023-03-14T08:50:55;12.40;1.00
16479;DHT22;8350;52.316;10.530;2023-03-14T08:53:22;12.30;1.00
16479;DHT22;8350;52.316;10.530;2023-03-14T08:55:53;12.20;1.00
16479;DHT22;8350;52.316;10.530;2023-03-14T08:58:20;12.20;1.00
16479;DHT22;8350;52.316;10.530;2023-03-14T09:00:49;12.10;1.00
16479;DHT22;8350;52.316;10.530;2023-03-14T09:03:18;12.10;1.00
16479;DHT22;8350;52.316;10.530;2023-03-14T09:05:45;12.10;1.00
16479;DHT22;8350;52.316;10.530;2023-03-14T09:08:12;12.10;1.00
16479;DHT22;8350;52.316;10.530;2023-03-14T09:10:39;12.00;1.00
16479;DHT22;8350;52.316;10.530;2023-03-14T09:13:07;12.00;1.00
16479;DHT22;8350;52.316;10.530;2023-03-14T09:15:34;11.90;1.00
16479;DHT22;8350;52.316;10.530;2023-03-14T09:18:01;11.90;1.00
16479;DHT22;8350;52.316;10.530;2023-03-14T09:20:28;11.90;1.00
16479;DHT22;8350;52.316;10.530;2023-03-14T09:22:55;11.80;1.00
16479;DHT22;8350;52.316;10.530;2023-03-14T09:25:22;11.70;1.00
16479;DHT22;8350;52.316;10.530;2023-03-14T09:27:49;11.60;1.00
16479;DHT22;8350;52.316;10.530;2023-03-14T09:30:18;11.60;1.00
16479;DHT22;8350;52.316;10.530;2023-03-14T09:32:45;11.50;1.00
16479;DHT22;8350;52.316;10.530;2023-03-14T09:35:12;11.50;1.00
16479;DHT22;8350;52.316;10.530;2023-03-14T09:37:41;11.40;1.00
16479;DHT22;8350;52.316;10.530;2023-03-14T09:40:12;11.40;6.80
16479;DHT22;8350;52.316;10.530;2023-03-14T09:42:39;11.50;38.10
16479;DHT22;8350;52.316;10.530;2023-03-14T09:45:11;11.60;11.00
16479;DHT22;8350;52.316;10.530;2023-03-14T09:47:41;11.80;1.00
16479;DHT22;8350;52.316;10.530;2023-03-14T09:50:13;11.90;1.00
16479;DHT22;8350;52.316;10.530;2023-03-14T09:52:44;12.00;1.00
16479;DHT22;8350;52.316;10.530;2023-03-14T09:55:14;12.00;1.00
16479;DHT22;8350;52.316;10.530;2023-03-14T09:57:44;12.00;1.00
16479;DHT22;8350;52.316;10.530;2023-03-14T10:00:15;12.00;1.00
16479;DHT22;8350;52.316;10.530;2023-03-14T10:02:51;12.00;1.00
16479;DHT22;8350;52.316;10.530;2023-03-14T10:05:21;12.10;1.00
16479;DHT22;8350;52.316;10.530;2023-03-14T10:07:49;12.30;1.00
16479;DHT22;8350;52.316;10.530;2023-03-14T10:10:18;12.40;1.00
16479;DHT22;8350;52.316;10.530;2023-03-14T10:12:47;12.50;1.00
16479;DHT22;8350;52.316;10.530;2023-03-14T10:15:15;12.70;1.00
16479;DHT22;8350;52.316;10.530;2023-03-14T10:17:51;13.00;1.00
16479;DHT22;8350;52.316;10.530;2023-03-14T10:20:30;13.20;1.00
16479;DHT22;8350;52.316;10.530;2023-03-14T10:23:00;13.30;1.00
16479;DHT22;8350;52.316;10.530;2023-03-14T10:25:29;13.30;1.00
16479;DHT22;8350;52.316;10.530;2023-03-14T10:27:56;13.30;1.00
16479;DHT22;8350;52.316;10.530;2023-03-14T10:30:34;13.30;1.00
16479;DHT22;8350;52.316;10.530;2023-03-14T10:33:18;13.30;1.00
16479;DHT22;8350;52.316;10.530;2023-03-14T10:35:51;13.30;1.00
16479;DHT22;8350;52.316;10.530;2023-03-14T10:38:19;13.20;1.00
16479;DHT22;8350;52.316;10.530;2023-03-14T10:40:47;13.20;1.00
16479;DHT22;8350;52.316;10.530;2023-03-14T10:43:17;13.10;1.00
16479;DHT22;8350;52.316;10.530;2023-03-14T10:45:51;12.80;1.00
16479;DHT22;8350;52.316;10.530;2023-03-14T10:48:30;12.50;1.00
16479;DHT22;8350;52.316;10.530;2023-03-14T10:51:03;12.40;1.00
16479;DHT22;8350;52.316;10.530;2023-03-14T10:53:34;12.20;1.00
16479;DHT22;8350;52.316;10.530;2023-03-14T10:56:11;12.10;1.00
16479;DHT22;8350;52.316;10.530;2023-03-14T10:58:41;11.90;1.00
16479;DHT22;8350;52.316;10.530;2023-03-14T11:01:30;11.80;4.70
16479;DHT22;8350;52.316;10.530;2023-03-14T11:04:03;11.90;37.60
16479;DHT22;8350;52.316;10.530;2023-03-14T11:06:38;12.00;21.80
16479;DHT22;8350;52.316;10.530;2023-03-14T11:09:14;12.20;23.30
16479;DHT22;8350;52.316;10.530;2023-03-14T11:11:46;12.40;1.00
16479;DHT22;8350;52.316;10.530;2023-03-14T11:14:20;12.40;1.00
16479;DHT22;8350;52.316;10.530;2023-03-14T11:16:53;12.40;1.00
16479;DHT22;8350;52.316;10.530;2023-03-14T11:19:37;12.40;1.00
16479;DHT22;8350;52.316;10.530;2023-03-14T11:22:14;12.40;1.00
16479;DHT22;8350;52.316;10.530;2023-03-14T11:25:02;12.50;1.00
16479;DHT22;8350;52.316;10.530;2023-03-14T11:27:40;12.50;1.00
16479;DHT22;8350;52.316;10.530;2023-03-14T11:30:17;12.40;1.00
16479;DHT22;8350;52.316;10.530;2023-03-14T11:32:46;12.30;1.00
16479;DHT22;8350;52.316;10.530;2023-03-14T11:35:42;12.20;1.00
16479;DHT22;8350;52.316;10.530;2023-03-14T11:38:19;12.10;1.00
16479;DHT22;8350;52.316;10.530;2023-03-14T11:40:51;12.10;1.00
16479;DHT22;8350;52.316;10.530;2023-03-14T11:43:28;12.20;1.00
16479;DHT22;8350;52.316;10.530;2023-03-14T11:46:01;12.30;1.00
16479;DHT22;8350;52.316;10.530;2023-03-14T11:48:37;12.30;1.00
16479;DHT22;8350;52.316;10.530;2023-03-14T11:51:11;12.30;1.00
16479;DHT22;8350;52.316;10.530;2023-03-14T11:53:52;12.30;1.00
16479;DHT22;8350;52.316;10.530;2023-03-14T11:56:27;12.20;1.00
16479;DHT22;8350;52.316;10.530;2023-03-14T11:58:58;12.30;1.00
16479;DHT22;8350;52.316;10.530;2023-03-14T12:01:34;12.40;1.00
16479;DHT22;8350;52.316;10.530;2023-03-14T12:04:06;12.50;1.00
16479;DHT22;8350;52.316;10.530;2023-03-14T12:06:39;12.50;1.00
16479;DHT22;8350;52.316;10.530;2023-03-14T12:09:10;12.50;1.00
16479;DHT22;8350;52.316;10.530;2023-03-14T12:11:41;12.50;1.00
16479;DHT22;8350;52.316;10.530;2023-03-14T12:14:24;12.40;1.00
16479;DHT22;8350;52.316;10.530;2023-03-14T12:16:54;12.50;1.00
16479;DHT22;8350;52.316;10.530;2023-03-14T12:19:37;12.50;1.00
16479;DHT22;8350;52.316;10.530;2023-03-14T12:22:21;11.60;1.00
16479;DHT22;8350;52.316;10.530;2023-03-14T12:24:51;9.40;1.00
16479;DHT22;8350;52.316;10.530;2023-03-14T12:27:49;8.70;81.10
16479;DHT22;8350;52.316;10.530;2023-03-14T12:30:30;8.30;99.90
16479;DHT22;8350;52.316;10.530;2023-03-14T12:33:31;7.80;99.90
16479;DHT22;8350;52.316;10.530;2023-03-14T12:36:12;7.60;99.90
16479;DHT22;8350;52.316;10.530;2023-03-14T12:38:59;7.50;99.90
16479;DHT22;8350;52.316;10.530;2023-03-14T12:41:29;7.40;99.90
16479;DHT22;8350;52.316;10.530;2023-03-14T12:50:31;6.70;99.90
16479;DHT22;8350;52.316;10.530;2023-03-14T12:56:23;6.50;99.90
16479;DHT22;8350;52.316;10.530;2023-03-14T12:59:10;6.20;99.90
16479;DHT22;8350;52.316;10.530;2023-03-14T13:01:47;6.10;99.90
16479;DHT22;8350;52.316;10.530;2023-03-14T13:04:20;5.90;99.90
16479;DHT22;8350;52.316;10.530;2023-03-14T13:06:54;5.70;99.90
16479;DHT22;8350;52.316;10.530;2023-03-14T13:12:30;5.60;99.90
16479;DHT22;8350;52.316;10.530;2023-03-14T13:15:01;5.50;99.90
16479;DHT22;8350;52.316;10.530;2023-03-14T13:17:33;5.50;99.90
16479;DHT22;8350;52.316;10.530;2023-03-14T13:20:03;5.30;97.20
16479;DHT22;8350;52.316;10.530;2023-03-14T13:22:34;5.20;99.90
16479;DHT22;8350;52.316;10.530;2023-03-14T13:25:06;5.20;99.90
16479;DHT22;8350;52.316;10.530;2023-03-14T13:27:36;5.10;98.20
16479;DHT22;8350;52.316;10.530;2023-03-14T13:30:19;5.00;99.90
16479;DHT22;8350;52.316;10.530;2023-03-14T13:32:48;5.00;99.90
16479;DHT22;8350;52.316;10.530;2023-03-14T13:35:20;5.00;99.90
16479;DHT22;8350;52.316;10.530;2023-03-14T13:37:51;4.80;99.90
16479;DHT22;8350;52.316;10.530;2023-03-14T13:40:20;4.80;99.90
16479;DHT22;8350;52.316;10.530;2023-03-14T13:43:01;4.70;99.90
16479;DHT22;8350;52.316;10.530;2023-03-14T13:45:28;4.70;99.90
16479;DHT22;8350;52.316;10.530;2023-03-14T13:47:55;4.70;99.90
16479;DHT22;8350;52.316;10.530;2023-03-14T13:50:22;4.70;99.90
16479;DHT22;8350;52.316;10.530;2023-03-14T13:52:55;4.60;84.30
16479;DHT22;8350;52.316;10.530;2023-03-14T13:55:22;4.50;48.40
16479;DHT22;8350;52.316;10.530;2023-03-14T13:57:51;4.50;78.10
16479;DHT22;8350;52.316;10.530;2023-03-14T14:00:22;4.40;17.00
16479;DHT22;8350;52.316;10.530;2023-03-14T14:02:53;4.40;55.90
16479;DHT22;8350;52.316;10.530;2023-03-14T14:05:20;4.50;29.80
16479;DHT22;8350;52.316;10.530;2023-03-14T14:07:49;4.40;19.00
16479;DHT22;8350;52.316;10.530;2023-03-14T14:10:16;4.50;23.50
16479;DHT22;8350;52.316;10.530;2023-03-14T14:12:46;4.60;20.40
16479;DHT22;8350;52.316;10.530;2023-03-14T14:15:18;4.50;5.50
16479;DHT22;8350;52.316;10.530;2023-03-14T14:17:50;4.50;1.50
16479;DHT22;8350;52.316;10.530;2023-03-14T14:20:22;4.60;17.10
16479;DHT22;8350;52.316;10.530;2023-03-14T14:22:50;4.60;10.50
16479;DHT22;8350;52.316;10.530;2023-03-14T14:25:18;4.70;26.60
16479;DHT22;8350;52.316;10.530;2023-03-14T14:27:48;4.70;26.20
16479;DHT22;8350;52.316;10.530;2023-03-14T14:30:30;4.70;1.00
16479;DHT22;8350;52.316;10.530;2023-03-14T14:33:19;4.70;10.80
16479;DHT22;8350;52.316;10.530;2023-03-14T14:35:53;4.70;1.00
16479;DHT22;8350;52.316;10.530;2023-03-14T14:38:21;4.80;21.70
16479;DHT22;8350;52.316;10.530;2023-03-14T14:40:50;4.70;20.20
16479;DHT22;8350;52.316;10.530;2023-03-14T14:43:22;4.80;8.60
16479;DHT22;8350;52.316;10.530;2023-03-14T14:45:51;4.80;17.10
16479;DHT22;8350;52.316;10.530;2023-03-14T14:48:23;4.90;18.60
16479;DHT22;8350;52.316;10.530;2023-03-14T14:50:56;4.90;8.00
16479;DHT22;8350;52.316;10.530;2023-03-14T14:53:28;4.80;7.20
16479;DHT22;8350;52.316;10.530;2023-03-14T14:55:57;4.70;2.50
16479;DHT22;8350;52.316;10.530;2023-03-14T14:58:27;4.70;28.00
16479;DHT22;8350;52.316;10.530;2023-03-14T15:00:57;4.50;15.20
16479;DHT22;8350;52.316;10.530;2023-03-14T15:03:28;4.40;55.50
16479;DHT22;8350;52.316;10.530;2023-03-14T15:05:56;4.40;50.50
16479;DHT22;8350;52.316;10.530;2023-03-14T15:08:25;4.30;63.60
16479;DHT22;8350;52.316;10.530;2023-03-14T15:10:53;4.40;42.00
16479;DHT22;8350;52.316;10.530;2023-03-14T15:13:20;4.50;40.10
16479;DHT22;8350;52.316;10.530;2023-03-14T15:15:47;4.50;1.00
16479;DHT22;8350;52.316;10.530;2023-03-14T15:18:16;4.60;1.00
16479;DHT22;8350;52.316;10.530;2023-03-14T15:20:45;4.70;1.00
16479;DHT22;8350;52.316;10.530;2023-03-14T15:23:14;4.80;1.00
16479;DHT22;8350;52.316;10.530;2023-03-14T15:25:41;4.90;1.00
16479;DHT22;8350;52.316;10.530;2023-03-14T15:28:14;4.90;1.00
16479;DHT22;8350;52.316;10.530;2023-03-14T15:30:42;5.00;1.00
16479;DHT22;8350;52.316;10.530;2023-03-14T15:33:09;5.00;1.00
16479;DHT22;8350;52.316;10.530;2023-03-14T15:35:36;5.10;1.00
16479;DHT22;8350;52.316;10.530;2023-03-14T15:38:05;5.10;1.00
16479;DHT22;8350;52.316;10.530;2023-03-14T15:40:31;5.10;1.00
16479;DHT22;8350;52.316;10.530;2023-03-14T15:42:58;5.20;1.00
16479;DHT22;8350;52.316;10.530;2023-03-14T15:45:25;5.10;1.00
16479;DHT22;8350;52.316;10.530;2023-03-14T15:47:52;5.10;1.00
16479;DHT22;8350;52.316;10.530;2023-03-14T15:50:19;5.10;1.00
16479;DHT22;8350;52.316;10.530;2023-03-14T15:52:45;5.20;1.00
16479;DHT22;8350;52.316;10.530;2023-03-14T15:55:14;5.10;1.00
16479;DHT22;8350;52.316;10.530;2023-03-14T15:57:42;5.20;1.00
16479;DHT22;8350;52.316;10.530;2023-03-14T16:00:13;5.20;1.00
16479;DHT22;8350;52.316;10.530;2023-03-14T16:02:41;5.20;1.00
16479;DHT22;8350;52.316;10.530;2023-03-14T16:05:09;5.20;1.00
16479;DHT22;8350;52.316;10.530;2023-03-14T16:07:36;5.20;99.90
16479;DHT22;8350;52.316;10.530;2023-03-14T16:10:04;5.20;99.90
16479;DHT22;8350;52.316;10.530;2023-03-14T16:12:32;5.20;99.90
16479;DHT22;8350;52.316;10.530;2023-03-14T16:15:03;5.20;82.00
16479;DHT22;8350;52.316;10.530;2023-03-14T16:17:30;5.20;96.30